sensor_id;sensor_type;location;lat;lon;timestamp;P1;durP1;ratioP1;P2;durP2;ratioP2
13048;SDS011;6591;51.446;5.404;2022-10-31T00:01:26;9.63;;;7.00;;
13048;SDS011;6591;51.446;5.404;2022-10-31T00:03:56;7.03;;;5.90;;
13048;SDS011;6591;51.446;5.404;2022-10-31T00:06:23;10.10;;;6.30;;
13048;SDS011;6591;51.446;5.404;2022-10-31T00:08:52;10.30;;;7.13;;
13048;SDS011;6591;51.446;5.404;2022-10-31T00:11:28;8.33;;;6.23;;
13048;SDS011;6591;51.446;5.404;2022-10-31T00:13:57;10.10;;;5.93;;
13048;SDS011;6591;51.446;5.404;2022-10-31T00:16:25;9.07;;;5.93;;
13048;SDS011;6591;51.446;5.404;2022-10-31T00:18:55;8.17;;;6.20;;
13048;SDS011;6591;51.446;5.404;2022-10-31T00:21:25;7.50;;;6.43;;
13048;SDS011;6591;51.446;5.404;2022-10-31T00:23:53;7.37;;;6.13;;
13048;SDS011;6591;51.446;5.404;2022-10-31T00:26:20;8.40;;;6.53;;
13048;SDS011;6591;51.446;5.404;2022-10-31T00:28:47;7.93;;;6.23;;
13048;SDS011;6591;51.446;5.404;2022-10-31T00:31:14;9.33;;;5.97;;
13048;SDS011;6591;51.446;5.404;2022-10-31T00:33:42;7.13;;;5.70;;
13048;SDS011;6591;51.446;5.404;2022-10-31T00:36:11;10.10;;;6.67;;
13048;SDS011;6591;51.446;5.404;2022-10-31T00:38:42;7.13;;;6.17;;
13048;SDS011;6591;51.446;5.404;2022-10-31T00:41:11;9.17;;;6.77;;
13048;SDS011;6591;51.446;5.404;2022-10-31T00:43:40;7.50;;;6.03;;
13048;SDS011;6591;51.446;5.404;2022-10-31T00:46:09;16.53;;;6.80;;
13048;SDS011;6591;51.446;5.404;2022-10-31T00:48:36;8.13;;;5.53;;
13048;SDS011;6591;51.446;5.404;2022-10-31T00:51:03;8.37;;;6.10;;
13048;SDS011;6591;51.446;5.404;2022-10-31T00:53:31;8.73;;;6.20;;
13048;SDS011;6591;51.446;5.404;2022-10-31T00:55:58;8.87;;;6.40;;
13048;SDS011;6591;51.446;5.404;2022-10-31T00:58:25;8.03;;;6.50;;
13048;SDS011;6591;51.446;5.404;2022-10-31T01:00:52;7.87;;;6.50;;
13048;SDS011;6591;51.446;5.404;2022-10-31T01:03:23;8.70;;;5.93;;
13048;SDS011;6591;51.446;5.404;2022-10-31T01:06:05;9.43;;;6.30;;
13048;SDS011;6591;51.446;5.404;2022-10-31T01:08:35;7.67;;;6.37;;
13048;SDS011;6591;51.446;5.404;2022-10-31T01:11:08;8.13;;;6.83;;
13048;SDS011;6591;51.446;5.404;2022-10-31T01:13:43;10.07;;;6.67;;
13048;SDS011;6591;51.446;5.404;2022-10-31T01:16:11;10.23;;;6.93;;
13048;SDS011;6591;51.446;5.404;2022-10-31T01:18:44;8.80;;;6.83;;
13048;SDS011;6591;51.446;5.404;2022-10-31T01:21:33;7.80;;;6.30;;
13048;SDS011;6591;51.446;5.404;2022-10-31T01:23:59;9.30;;;6.63;;
13048;SDS011;6591;51.446;5.404;2022-10-31T01:26:29;8.67;;;6.40;;
13048;SDS011;6591;51.446;5.404;2022-10-31T01:28:59;9.83;;;6.60;;
13048;SDS011;6591;51.446;5.404;2022-10-31T01:31:34;10.33;;;6.77;;
13048;SDS011;6591;51.446;5.404;2022-10-31T01:34:05;10.53;;;6.80;;
13048;SDS011;6591;51.446;5.404;2022-10-31T01:36:35;11.10;;;6.43;;
13048;SDS011;6591;51.446;5.404;2022-10-31T01:39:06;7.40;;;6.37;;
13048;SDS011;6591;51.446;5.404;2022-10-31T01:41:43;7.87;;;6.27;;
13048;SDS011;6591;51.446;5.404;2022-10-31T01:49:10;7.30;;;6.13;;
13048;SDS011;6591;51.446;5.404;2022-10-31T01:51:52;8.33;;;6.47;;
13048;SDS011;6591;51.446;5.404;2022-10-31T01:54:28;8.00;;;6.00;;
13048;SDS011;6591;51.446;5.404;2022-10-31T01:57:03;8.80;;;5.87;;
13048;SDS011;6591;51.446;5.404;2022-10-31T01:59:38;8.70;;;6.30;;
13048;SDS011;6591;51.446;5.404;2022-10-31T02:02:12;9.63;;;6.60;;
13048;SDS011;6591;51.446;5.404;2022-10-31T02:04:41;7.17;;;5.87;;
13048;SDS011;6591;51.446;5.404;2022-10-31T02:07:20;8.77;;;5.97;;
13048;SDS011;6591;51.446;5.404;2022-10-31T02:09:57;9.50;;;6.43;;
13048;SDS011;6591;51.446;5.404;2022-10-31T02:12:27;9.67;;;6.47;;
13048;SDS011;6591;51.446;5.404;2022-10-31T02:14:59;8.97;;;6.47;;
13048;SDS011;6591;51.446;5.404;2022-10-31T02:17:27;9.80;;;6.47;;
13048;SDS011;6591;51.446;5.404;2022-10-31T02:38:11;8.57;;;6.53;;
13048;SDS011;6591;51.446;5.404;2022-10-31T02:41:10;8.07;;;6.13;;
13048;SDS011;6591;51.446;5.404;2022-10-31T02:44:48;8.07;;;6.07;;
13048;SDS011;6591;51.446;5.404;2022-10-31T02:47:09;8.10;;;6.37;;
13048;SDS011;6591;51.446;5.404;2022-10-31T02:49:48;7.80;;;6.40;;
13048;SDS011;6591;51.446;5.404;2022-10-31T02:52:29;7.90;;;6.53;;
13048;SDS011;6591;51.446;5.404;2022-10-31T02:55:13;12.00;;;6.47;;
13048;SDS011;6591;51.446;5.404;2022-10-31T02:58:03;8.47;;;7.00;;
13048;SDS011;6591;51.446;5.404;2022-10-31T03:00:47;10.10;;;7.23;;
13048;SDS011;6591;51.446;5.404;2022-10-31T03:06:57;9.07;;;6.60;;
13048;SDS011;6591;51.446;5.404;2022-10-31T03:09:40;11.73;;;7.17;;
13048;SDS011;6591;51.446;5.404;2022-10-31T03:12:40;11.30;;;7.30;;
13048;SDS011;6591;51.446;5.404;2022-10-31T03:15:29;9.33;;;7.33;;
13048;SDS011;6591;51.446;5.404;2022-10-31T03:18:07;10.90;;;8.17;;
13048;SDS011;6591;51.446;5.404;2022-10-31T03:21:16;12.13;;;7.23;;
13048;SDS011;6591;51.446;5.404;2022-10-31T03:23:47;9.97;;;7.83;;
13048;SDS011;6591;51.446;5.404;2022-10-31T03:26:19;10.90;;;7.90;;
13048;SDS011;6591;51.446;5.404;2022-10-31T03:29:01;8.23;;;7.27;;
13048;SDS011;6591;51.446;5.404;2022-10-31T03:32:12;9.17;;;7.47;;
13048;SDS011;6591;51.446;5.404;2022-10-31T03:34:39;9.13;;;7.57;;
13048;SDS011;6591;51.446;5.404;2022-10-31T03:37:11;10.17;;;7.40;;
13048;SDS011;6591;51.446;5.404;2022-10-31T03:39:43;10.63;;;7.90;;
13048;SDS011;6591;51.446;5.404;2022-10-31T03:42:15;10.17;;;7.90;;
13048;SDS011;6591;51.446;5.404;2022-10-31T03:44:51;14.70;;;8.37;;
13048;SDS011;6591;51.446;5.404;2022-10-31T03:47:36;10.70;;;7.93;;
13048;SDS011;6591;51.446;5.404;2022-10-31T03:50:06;11.37;;;8.30;;
13048;SDS011;6591;51.446;5.404;2022-10-31T03:52:38;11.53;;;8.63;;
13048;SDS011;6591;51.446;5.404;2022-10-31T03:55:19;12.27;;;8.13;;
13048;SDS011;6591;51.446;5.404;2022-10-31T03:58:10;11.80;;;8.40;;
13048;SDS011;6591;51.446;5.404;2022-10-31T04:00:51;13.23;;;8.53;;
13048;SDS011;6591;51.446;5.404;2022-10-31T04:03:25;12.53;;;8.77;;
13048;SDS011;6591;51.446;5.404;2022-10-31T04:05:59;10.37;;;8.20;;
13048;SDS011;6591;51.446;5.404;2022-10-31T04:08:38;11.17;;;8.10;;
13048;SDS011;6591;51.446;5.404;2022-10-31T04:11:15;10.93;;;7.97;;
13048;SDS011;6591;51.446;5.404;2022-10-31T04:14:06;11.80;;;8.70;;
13048;SDS011;6591;51.446;5.404;2022-10-31T04:16:35;12.00;;;8.73;;
13048;SDS011;6591;51.446;5.404;2022-10-31T04:19:03;12.10;;;8.03;;
13048;SDS011;6591;51.446;5.404;2022-10-31T04:21:30;9.87;;;8.03;;
13048;SDS011;6591;51.446;5.404;2022-10-31T04:23:57;8.67;;;7.60;;
13048;SDS011;6591;51.446;5.404;2022-10-31T04:26:27;10.50;;;8.80;;
13048;SDS011;6591;51.446;5.404;2022-10-31T04:28:54;11.30;;;8.33;;
13048;SDS011;6591;51.446;5.404;2022-10-31T04:31:21;10.57;;;7.97;;
13048;SDS011;6591;51.446;5.404;2022-10-31T04:33:49;10.37;;;8.33;;
13048;SDS011;6591;51.446;5.404;2022-10-31T04:36:16;12.60;;;7.90;;
13048;SDS011;6591;51.446;5.404;2022-10-31T04:38:43;10.63;;;7.40;;
13048;SDS011;6591;51.446;5.404;2022-10-31T04:41:24;9.90;;;7.40;;
13048;SDS011;6591;51.446;5.404;2022-10-31T04:44:00;12.10;;;8.13;;
13048;SDS011;6591;51.446;5.404;2022-10-31T04:46:27;11.53;;;8.23;;
13048;SDS011;6591;51.446;5.404;2022-10-31T04:48:56;9.30;;;7.80;;
13048;SDS011;6591;51.446;5.404;2022-10-31T04:51:23;15.27;;;9.27;;
13048;SDS011;6591;51.446;5.404;2022-10-31T04:53:50;13.13;;;8.50;;
13048;SDS011;6591;51.446;5.404;2022-10-31T04:56:26;11.67;;;9.07;;
13048;SDS011;6591;51.446;5.404;2022-10-31T04:59:04;12.17;;;9.00;;
13048;SDS011;6591;51.446;5.404;2022-10-31T05:01:43;10.60;;;8.67;;
13048;SDS011;6591;51.446;5.404;2022-10-31T05:04:10;11.70;;;9.00;;
13048;SDS011;6591;51.446;5.404;2022-10-31T05:06:37;14.23;;;9.37;;
13048;SDS011;6591;51.446;5.404;2022-10-31T05:09:04;14.17;;;9.93;;
13048;SDS011;6591;51.446;5.404;2022-10-31T05:11:31;14.00;;;10.33;;
13048;SDS011;6591;51.446;5.404;2022-10-31T05:14:14;15.87;;;10.07;;
13048;SDS011;6591;51.446;5.404;2022-10-31T05:17:01;11.50;;;9.80;;
13048;SDS011;6591;51.446;5.404;2022-10-31T05:19:51;16.03;;;10.20;;
13048;SDS011;6591;51.446;5.404;2022-10-31T05:22:51;13.40;;;9.43;;
13048;SDS011;6591;51.446;5.404;2022-10-31T05:25:21;12.47;;;9.50;;
13048;SDS011;6591;51.446;5.404;2022-10-31T05:27:52;13.27;;;9.63;;
13048;SDS011;6591;51.446;5.404;2022-10-31T05:30:22;11.97;;;9.67;;
13048;SDS011;6591;51.446;5.404;2022-10-31T05:32:53;13.70;;;10.00;;
13048;SDS011;6591;51.446;5.404;2022-10-31T05:35:43;12.93;;;9.70;;
13048;SDS011;6591;51.446;5.404;2022-10-31T05:38:32;14.10;;;8.93;;
13048;SDS011;6591;51.446;5.404;2022-10-31T05:41:08;14.20;;;9.50;;
13048;SDS011;6591;51.446;5.404;2022-10-31T05:43:37;12.50;;;9.47;;
13048;SDS011;6591;51.446;5.404;2022-10-31T05:46:05;12.70;;;9.30;;
13048;SDS011;6591;51.446;5.404;2022-10-31T05:49:04;12.53;;;9.63;;
13048;SDS011;6591;51.446;5.404;2022-10-31T05:51:49;12.50;;;9.70;;
13048;SDS011;6591;51.446;5.404;2022-10-31T05:54:18;12.83;;;10.03;;
13048;SDS011;6591;51.446;5.404;2022-10-31T05:56:45;11.63;;;9.83;;
13048;SDS011;6591;51.446;5.404;2022-10-31T05:59:11;12.60;;;10.00;;
13048;SDS011;6591;51.446;5.404;2022-10-31T06:01:39;12.73;;;10.70;;
13048;SDS011;6591;51.446;5.404;2022-10-31T06:04:22;15.17;;;9.70;;
13048;SDS011;6591;51.446;5.404;2022-10-31T06:06:48;13.10;;;9.90;;
13048;SDS011;6591;51.446;5.404;2022-10-31T06:09:15;13.13;;;10.23;;
13048;SDS011;6591;51.446;5.404;2022-10-31T06:11:43;14.77;;;10.60;;
13048;SDS011;6591;51.446;5.404;2022-10-31T06:14:30;12.17;;;9.63;;
13048;SDS011;6591;51.446;5.404;2022-10-31T06:16:57;15.63;;;10.53;;
13048;SDS011;6591;51.446;5.404;2022-10-31T06:19:42;13.20;;;9.83;;
13048;SDS011;6591;51.446;5.404;2022-10-31T06:22:14;12.37;;;9.53;;
13048;SDS011;6591;51.446;5.404;2022-10-31T06:24:42;13.93;;;9.90;;
13048;SDS011;6591;51.446;5.404;2022-10-31T06:27:21;14.63;;;10.03;;
13048;SDS011;6591;51.446;5.404;2022-10-31T06:29:49;13.17;;;10.60;;
13048;SDS011;6591;51.446;5.404;2022-10-31T06:32:27;15.00;;;10.83;;
13048;SDS011;6591;51.446;5.404;2022-10-31T06:34:53;13.33;;;10.97;;
13048;SDS011;6591;51.446;5.404;2022-10-31T06:37:21;14.70;;;10.93;;
13048;SDS011;6591;51.446;5.404;2022-10-31T06:39:49;15.87;;;10.47;;
13048;SDS011;6591;51.446;5.404;2022-10-31T06:42:17;14.40;;;11.00;;
13048;SDS011;6591;51.446;5.404;2022-10-31T06:44:44;13.60;;;11.17;;
13048;SDS011;6591;51.446;5.404;2022-10-31T06:47:30;12.53;;;9.47;;
13048;SDS011;6591;51.446;5.404;2022-10-31T06:50:07;12.23;;;8.90;;
13048;SDS011;6591;51.446;5.404;2022-10-31T06:52:34;13.50;;;9.73;;
13048;SDS011;6591;51.446;5.404;2022-10-31T06:55:03;12.47;;;9.53;;
13048;SDS011;6591;51.446;5.404;2022-10-31T06:57:31;10.97;;;9.43;;
13048;SDS011;6591;51.446;5.404;2022-10-31T06:59:58;14.43;;;9.77;;
13048;SDS011;6591;51.446;5.404;2022-10-31T07:02:35;11.57;;;10.23;;
13048;SDS011;6591;51.446;5.404;2022-10-31T07:05:03;16.27;;;10.70;;
13048;SDS011;6591;51.446;5.404;2022-10-31T07:07:31;15.10;;;10.67;;
13048;SDS011;6591;51.446;5.404;2022-10-31T07:09:58;13.77;;;10.13;;
13048;SDS011;6591;51.446;5.404;2022-10-31T07:12:46;13.63;;;10.40;;
13048;SDS011;6591;51.446;5.404;2022-10-31T07:15:13;13.70;;;10.60;;
13048;SDS011;6591;51.446;5.404;2022-10-31T07:17:40;12.97;;;10.03;;
13048;SDS011;6591;51.446;5.404;2022-10-31T07:20:07;15.20;;;10.60;;
13048;SDS011;6591;51.446;5.404;2022-10-31T07:22:36;15.30;;;11.23;;
13048;SDS011;6591;51.446;5.404;2022-10-31T07:25:06;15.53;;;11.27;;
13048;SDS011;6591;51.446;5.404;2022-10-31T07:27:52;15.67;;;11.77;;
13048;SDS011;6591;51.446;5.404;2022-10-31T07:30:19;16.97;;;11.70;;
13048;SDS011;6591;51.446;5.404;2022-10-31T07:32:50;13.03;;;10.43;;
13048;SDS011;6591;51.446;5.404;2022-10-31T07:35:22;15.43;;;10.23;;
13048;SDS011;6591;51.446;5.404;2022-10-31T07:38:06;16.93;;;11.20;;
13048;SDS011;6591;51.446;5.404;2022-10-31T07:40:35;14.07;;;10.73;;
13048;SDS011;6591;51.446;5.404;2022-10-31T07:43:03;15.93;;;11.43;;
13048;SDS011;6591;51.446;5.404;2022-10-31T07:45:55;12.47;;;10.53;;
13048;SDS011;6591;51.446;5.404;2022-10-31T07:48:45;15.40;;;11.93;;
13048;SDS011;6591;51.446;5.404;2022-10-31T07:51:31;14.73;;;10.27;;
13048;SDS011;6591;51.446;5.404;2022-10-31T07:54:16;14.03;;;11.00;;
13048;SDS011;6591;51.446;5.404;2022-10-31T07:56:43;12.63;;;11.27;;
13048;SDS011;6591;51.446;5.404;2022-10-31T07:59:10;14.77;;;11.70;;
13048;SDS011;6591;51.446;5.404;2022-10-31T08:01:36;17.80;;;12.10;;
13048;SDS011;6591;51.446;5.404;2022-10-31T08:04:23;16.10;;;11.83;;
13048;SDS011;6591;51.446;5.404;2022-10-31T08:07:13;16.73;;;12.30;;
13048;SDS011;6591;51.446;5.404;2022-10-31T08:09:45;15.50;;;11.70;;
13048;SDS011;6591;51.446;5.404;2022-10-31T08:12:19;13.93;;;12.03;;
13048;SDS011;6591;51.446;5.404;2022-10-31T08:14:46;16.47;;;12.40;;
13048;SDS011;6591;51.446;5.404;2022-10-31T08:17:16;16.37;;;12.23;;
13048;SDS011;6591;51.446;5.404;2022-10-31T08:19:53;15.93;;;12.80;;
13048;SDS011;6591;51.446;5.404;2022-10-31T08:22:25;16.77;;;13.07;;
13048;SDS011;6591;51.446;5.404;2022-10-31T08:24:52;16.80;;;12.77;;
13048;SDS011;6591;51.446;5.404;2022-10-31T08:27:19;17.87;;;13.40;;
13048;SDS011;6591;51.446;5.404;2022-10-31T08:29:46;21.83;;;13.93;;
13048;SDS011;6591;51.446;5.404;2022-10-31T08:32:13;18.27;;;13.60;;
13048;SDS011;6591;51.446;5.404;2022-10-31T08:35:06;18.13;;;13.90;;
13048;SDS011;6591;51.446;5.404;2022-10-31T08:37:56;16.73;;;14.30;;
13048;SDS011;6591;51.446;5.404;2022-10-31T08:40:26;23.20;;;14.97;;
13048;SDS011;6591;51.446;5.404;2022-10-31T08:42:55;19.33;;;14.70;;
13048;SDS011;6591;51.446;5.404;2022-10-31T08:45:23;20.07;;;14.60;;
13048;SDS011;6591;51.446;5.404;2022-10-31T08:47:50;19.57;;;15.23;;
13048;SDS011;6591;51.446;5.404;2022-10-31T08:50:18;20.83;;;14.13;;
13048;SDS011;6591;51.446;5.404;2022-10-31T08:52:46;20.77;;;13.83;;
13048;SDS011;6591;51.446;5.404;2022-10-31T08:55:32;17.43;;;13.80;;
13048;SDS011;6591;51.446;5.404;2022-10-31T08:58:18;17.40;;;13.93;;
13048;SDS011;6591;51.446;5.404;2022-10-31T09:00:51;19.47;;;14.63;;
13048;SDS011;6591;51.446;5.404;2022-10-31T09:03:24;20.77;;;14.90;;
13048;SDS011;6591;51.446;5.404;2022-10-31T09:05:55;18.23;;;15.23;;
13048;SDS011;6591;51.446;5.404;2022-10-31T09:08:26;18.63;;;13.80;;
13048;SDS011;6591;51.446;5.404;2022-10-31T09:10:57;17.63;;;14.07;;
13048;SDS011;6591;51.446;5.404;2022-10-31T09:13:46;21.52;;;14.60;;
13048;SDS011;6591;51.446;5.404;2022-10-31T09:16:36;17.55;;;13.70;;
13048;SDS011;6591;51.446;5.404;2022-10-31T09:19:05;20.03;;;15.93;;
13048;SDS011;6591;51.446;5.404;2022-10-31T09:21:36;17.52;;;14.50;;
13048;SDS011;6591;51.446;5.404;2022-10-31T09:24:03;20.67;;;15.73;;
13048;SDS011;6591;51.446;5.404;2022-10-31T09:26:31;18.60;;;15.38;;
13048;SDS011;6591;51.446;5.404;2022-10-31T09:29:09;21.23;;;15.13;;
13048;SDS011;6591;51.446;5.404;2022-10-31T09:31:37;23.90;;;16.52;;
13048;SDS011;6591;51.446;5.404;2022-10-31T09:34:29;19.53;;;14.00;;
13048;SDS011;6591;51.446;5.404;2022-10-31T09:37:04;18.55;;;14.63;;
13048;SDS011;6591;51.446;5.404;2022-10-31T09:39:33;19.30;;;14.65;;
13048;SDS011;6591;51.446;5.404;2022-10-31T09:42:27;21.83;;;15.40;;
13048;SDS011;6591;51.446;5.404;2022-10-31T09:51:51;19.92;;;13.07;;
13048;SDS011;6591;51.446;5.404;2022-10-31T09:54:34;17.15;;;13.70;;
13048;SDS011;6591;51.446;5.404;2022-10-31T09:57:21;20.23;;;14.38;;
13048;SDS011;6591;51.446;5.404;2022-10-31T09:59:58;20.23;;;14.52;;
13048;SDS011;6591;51.446;5.404;2022-10-31T10:09:04;19.10;;;14.82;;
13048;SDS011;6591;51.446;5.404;2022-10-31T10:18:02;26.02;;;17.95;;
13048;SDS011;6591;51.446;5.404;2022-10-31T10:23:56;31.13;;;20.23;;
13048;SDS011;6591;51.446;5.404;2022-10-31T10:26:48;33.38;;;20.77;;
13048;SDS011;6591;51.446;5.404;2022-10-31T10:29:41;25.52;;;18.48;;
13048;SDS011;6591;51.446;5.404;2022-10-31T10:32:24;28.25;;;19.52;;
13048;SDS011;6591;51.446;5.404;2022-10-31T10:35:08;23.70;;;16.98;;
13048;SDS011;6591;51.446;5.404;2022-10-31T10:37:46;25.33;;;17.83;;
13048;SDS011;6591;51.446;5.404;2022-10-31T10:40:18;26.80;;;19.10;;
13048;SDS011;6591;51.446;5.404;2022-10-31T10:58:11;24.40;;;16.85;;
13048;SDS011;6591;51.446;5.404;2022-10-31T11:00:42;23.65;;;16.08;;
13048;SDS011;6591;51.446;5.404;2022-10-31T11:03:17;24.55;;;16.50;;
13048;SDS011;6591;51.446;5.404;2022-10-31T11:14:00;24.73;;;15.07;;
13048;SDS011;6591;51.446;5.404;2022-10-31T11:19:08;18.17;;;15.07;;
13048;SDS011;6591;51.446;5.404;2022-10-31T11:21:38;19.85;;;15.73;;
13048;SDS011;6591;51.446;5.404;2022-10-31T11:26:44;19.35;;;15.02;;
13048;SDS011;6591;51.446;5.404;2022-10-31T11:29:15;18.73;;;14.02;;
13048;SDS011;6591;51.446;5.404;2022-10-31T11:31:52;20.27;;;13.90;;
13048;SDS011;6591;51.446;5.404;2022-10-31T11:34:30;18.10;;;13.55;;
13048;SDS011;6591;51.446;5.404;2022-10-31T11:37:17;20.95;;;13.93;;
13048;SDS011;6591;51.446;5.404;2022-10-31T11:39:58;19.42;;;14.30;;
13048;SDS011;6591;51.446;5.404;2022-10-31T11:42:29;21.85;;;14.43;;
13048;SDS011;6591;51.446;5.404;2022-10-31T11:45:12;20.63;;;13.90;;
13048;SDS011;6591;51.446;5.404;2022-10-31T11:47:54;19.48;;;14.55;;
13048;SDS011;6591;51.446;5.404;2022-10-31T11:50:27;21.40;;;14.00;;
13048;SDS011;6591;51.446;5.404;2022-10-31T11:53:02;18.92;;;13.63;;
13048;SDS011;6591;51.446;5.404;2022-10-31T11:55:38;17.75;;;13.15;;
13048;SDS011;6591;51.446;5.404;2022-10-31T11:58:19;16.45;;;13.35;;
13048;SDS011;6591;51.446;5.404;2022-10-31T12:00:51;19.88;;;12.60;;
13048;SDS011;6591;51.446;5.404;2022-10-31T12:08:44;17.60;;;11.68;;
13048;SDS011;6591;51.446;5.404;2022-10-31T12:14:14;21.15;;;13.43;;
13048;SDS011;6591;51.446;5.404;2022-10-31T12:25:52;16.20;;;12.38;;
13048;SDS011;6591;51.446;5.404;2022-10-31T12:31:31;17.52;;;11.75;;
13048;SDS011;6591;51.446;5.404;2022-10-31T12:43:36;14.15;;;10.50;;
13048;SDS011;6591;51.446;5.404;2022-10-31T12:46:25;14.20;;;10.90;;
13048;SDS011;6591;51.446;5.404;2022-10-31T12:49:34;17.27;;;11.38;;
13048;SDS011;6591;51.446;5.404;2022-10-31T13:05:43;17.83;;;9.10;;
13048;SDS011;6591;51.446;5.404;2022-10-31T13:08:17;15.57;;;9.68;;
13048;SDS011;6591;51.446;5.404;2022-10-31T13:10:54;14.95;;;8.70;;
13048;SDS011;6591;51.446;5.404;2022-10-31T13:16:40;14.52;;;8.88;;
13048;SDS011;6591;51.446;5.404;2022-10-31T13:19:18;11.55;;;8.88;;
13048;SDS011;6591;51.446;5.404;2022-10-31T13:22:00;11.55;;;7.80;;
13048;SDS011;6591;51.446;5.404;2022-10-31T13:24:36;12.93;;;8.43;;
13048;SDS011;6591;51.446;5.404;2022-10-31T13:27:23;12.10;;;8.10;;
13048;SDS011;6591;51.446;5.404;2022-10-31T13:32:42;10.18;;;7.55;;
13048;SDS011;6591;51.446;5.404;2022-10-31T13:35:26;12.13;;;7.65;;
13048;SDS011;6591;51.446;5.404;2022-10-31T13:41:01;12.13;;;8.25;;
13048;SDS011;6591;51.446;5.404;2022-10-31T13:44:18;10.32;;;7.72;;
13048;SDS011;6591;51.446;5.404;2022-10-31T13:46:52;13.27;;;9.07;;
13048;SDS011;6591;51.446;5.404;2022-10-31T13:54:49;9.57;;;7.30;;
13048;SDS011;6591;51.446;5.404;2022-10-31T14:00:04;10.75;;;8.20;;
13048;SDS011;6591;51.446;5.404;2022-10-31T14:02:50;13.43;;;8.20;;
13048;SDS011;6591;51.446;5.404;2022-10-31T14:05:26;12.32;;;8.93;;
13048;SDS011;6591;51.446;5.404;2022-10-31T14:08:00;14.15;;;7.57;;
13048;SDS011;6591;51.446;5.404;2022-10-31T14:10:36;11.38;;;7.07;;
13048;SDS011;6591;51.446;5.404;2022-10-31T14:13:17;13.20;;;7.82;;
13048;SDS011;6591;51.446;5.404;2022-10-31T14:15:54;9.68;;;6.97;;
13048;SDS011;6591;51.446;5.404;2022-10-31T14:18:32;11.25;;;7.47;;
13048;SDS011;6591;51.446;5.404;2022-10-31T14:21:14;13.60;;;7.93;;
13048;SDS011;6591;51.446;5.404;2022-10-31T14:23:51;11.35;;;7.50;;
13048;SDS011;6591;51.446;5.404;2022-10-31T14:28:59;10.00;;;7.47;;
13048;SDS011;6591;51.446;5.404;2022-10-31T14:31:50;11.38;;;7.43;;
13048;SDS011;6591;51.446;5.404;2022-10-31T14:34:21;9.18;;;6.97;;
13048;SDS011;6591;51.446;5.404;2022-10-31T14:46:18;12.60;;;7.70;;
13048;SDS011;6591;51.446;5.404;2022-10-31T14:52:07;11.18;;;7.07;;
13048;SDS011;6591;51.446;5.404;2022-10-31T14:54:40;12.70;;;7.22;;
13048;SDS011;6591;51.446;5.404;2022-10-31T14:57:22;14.32;;;8.00;;
13048;SDS011;6591;51.446;5.404;2022-10-31T14:59:59;11.55;;;7.43;;
13048;SDS011;6591;51.446;5.404;2022-10-31T15:02:33;10.52;;;7.70;;
13048;SDS011;6591;51.446;5.404;2022-10-31T15:05:46;10.40;;;7.18;;
13048;SDS011;6591;51.446;5.404;2022-10-31T15:13:51;11.65;;;7.28;;
13048;SDS011;6591;51.446;5.404;2022-10-31T15:16:27;9.73;;;6.82;;
13048;SDS011;6591;51.446;5.404;2022-10-31T15:19:07;8.38;;;6.65;;
13048;SDS011;6591;51.446;5.404;2022-10-31T15:21:47;12.68;;;6.57;;
13048;SDS011;6591;51.446;5.404;2022-10-31T15:24:17;9.73;;;6.45;;
13048;SDS011;6591;51.446;5.404;2022-10-31T15:26:48;12.63;;;7.00;;
13048;SDS011;6591;51.446;5.404;2022-10-31T15:29:19;9.60;;;6.47;;
13048;SDS011;6591;51.446;5.404;2022-10-31T15:31:55;12.48;;;7.30;;
13048;SDS011;6591;51.446;5.404;2022-10-31T15:37:11;10.18;;;6.20;;
13048;SDS011;6591;51.446;5.404;2022-10-31T15:39:41;13.70;;;6.90;;
13048;SDS011;6591;51.446;5.404;2022-10-31T15:45:02;8.65;;;6.10;;
13048;SDS011;6591;51.446;5.404;2022-10-31T15:47:30;9.32;;;6.53;;
13048;SDS011;6591;51.446;5.404;2022-10-31T15:49:59;9.13;;;6.03;;
13048;SDS011;6591;51.446;5.404;2022-10-31T15:52:30;9.18;;;6.25;;
13048;SDS011;6591;51.446;5.404;2022-10-31T15:55:20;7.47;;;5.70;;
13048;SDS011;6591;51.446;5.404;2022-10-31T15:57:52;11.27;;;6.53;;
13048;SDS011;6591;51.446;5.404;2022-10-31T16:00:29;9.38;;;6.47;;
13048;SDS011;6591;51.446;5.404;2022-10-31T16:03:05;11.88;;;6.55;;
13048;SDS011;6591;51.446;5.404;2022-10-31T16:05:39;8.05;;;5.95;;
13048;SDS011;6591;51.446;5.404;2022-10-31T16:13:33;9.43;;;6.63;;
13048;SDS011;6591;51.446;5.404;2022-10-31T16:16:09;7.93;;;5.90;;
13048;SDS011;6591;51.446;5.404;2022-10-31T16:19:03;9.48;;;5.75;;
13048;SDS011;6591;51.446;5.404;2022-10-31T16:21:40;7.75;;;5.78;;
13048;SDS011;6591;51.446;5.404;2022-10-31T16:24:19;8.55;;;5.47;;
13048;SDS011;6591;51.446;5.404;2022-10-31T16:27:05;11.73;;;6.25;;
13048;SDS011;6591;51.446;5.404;2022-10-31T16:29:47;8.52;;;5.90;;
13048;SDS011;6591;51.446;5.404;2022-10-31T16:32:28;7.13;;;4.95;;
13048;SDS011;6591;51.446;5.404;2022-10-31T16:34:59;7.32;;;5.53;;
13048;SDS011;6591;51.446;5.404;2022-10-31T16:37:41;13.48;;;5.70;;
13048;SDS011;6591;51.446;5.404;2022-10-31T16:40:12;8.55;;;5.68;;
13048;SDS011;6591;51.446;5.404;2022-10-31T16:42:41;9.57;;;5.78;;
13048;SDS011;6591;51.446;5.404;2022-10-31T16:45:17;9.20;;;5.93;;
13048;SDS011;6591;51.446;5.404;2022-10-31T16:47:47;9.07;;;5.50;;
13048;SDS011;6591;51.446;5.404;2022-10-31T16:50:17;8.63;;;5.50;;
13048;SDS011;6591;51.446;5.404;2022-10-31T16:52:52;9.02;;;6.00;;
13048;SDS011;6591;51.446;5.404;2022-10-31T16:55:43;12.02;;;6.00;;
13048;SDS011;6591;51.446;5.404;2022-10-31T16:58:14;9.13;;;5.13;;
13048;SDS011;6591;51.446;5.404;2022-10-31T17:00:47;9.88;;;5.22;;
13048;SDS011;6591;51.446;5.404;2022-10-31T17:03:14;8.60;;;5.15;;
13048;SDS011;6591;51.446;5.404;2022-10-31T17:05:41;8.30;;;5.50;;
13048;SDS011;6591;51.446;5.404;2022-10-31T17:08:08;10.27;;;5.43;;
13048;SDS011;6591;51.446;5.404;2022-10-31T17:10:35;11.05;;;5.80;;
13048;SDS011;6591;51.446;5.404;2022-10-31T17:13:04;9.13;;;5.03;;
13048;SDS011;6591;51.446;5.404;2022-10-31T17:15:46;10.03;;;4.73;;
13048;SDS011;6591;51.446;5.404;2022-10-31T17:18:17;6.90;;;4.28;;
13048;SDS011;6591;51.446;5.404;2022-10-31T17:20:55;10.95;;;5.00;;
13048;SDS011;6591;51.446;5.404;2022-10-31T17:23:33;8.63;;;4.83;;
13048;SDS011;6591;51.446;5.404;2022-10-31T17:26:00;7.57;;;4.90;;
13048;SDS011;6591;51.446;5.404;2022-10-31T17:28:27;7.97;;;4.83;;
13048;SDS011;6591;51.446;5.404;2022-10-31T17:30:54;8.43;;;4.97;;
13048;SDS011;6591;51.446;5.404;2022-10-31T17:33:24;9.47;;;5.00;;
13048;SDS011;6591;51.446;5.404;2022-10-31T17:35:52;6.32;;;4.70;;
13048;SDS011;6591;51.446;5.404;2022-10-31T17:38:19;7.47;;;4.30;;
13048;SDS011;6591;51.446;5.404;2022-10-31T17:40:46;8.27;;;4.97;;
13048;SDS011;6591;51.446;5.404;2022-10-31T17:43:13;8.73;;;4.40;;
13048;SDS011;6591;51.446;5.404;2022-10-31T17:45:40;7.87;;;4.87;;
13048;SDS011;6591;51.446;5.404;2022-10-31T17:48:08;5.77;;;4.37;;
13048;SDS011;6591;51.446;5.404;2022-10-31T17:50:38;7.90;;;4.40;;
13048;SDS011;6591;51.446;5.404;2022-10-31T17:53:04;5.70;;;4.33;;
13048;SDS011;6591;51.446;5.404;2022-10-31T17:55:31;8.27;;;5.03;;
13048;SDS011;6591;51.446;5.404;2022-10-31T17:58:02;7.87;;;4.23;;
13048;SDS011;6591;51.446;5.404;2022-10-31T18:00:32;7.77;;;4.87;;
13048;SDS011;6591;51.446;5.404;2022-10-31T18:03:00;8.23;;;4.40;;
13048;SDS011;6591;51.446;5.404;2022-10-31T18:05:30;6.53;;;3.87;;
13048;SDS011;6591;51.446;5.404;2022-10-31T18:07:56;6.80;;;4.87;;
13048;SDS011;6591;51.446;5.404;2022-10-31T18:10:29;9.43;;;4.80;;
13048;SDS011;6591;51.446;5.404;2022-10-31T18:12:55;8.10;;;4.27;;
13048;SDS011;6591;51.446;5.404;2022-10-31T18:15:22;6.70;;;4.40;;
13048;SDS011;6591;51.446;5.404;2022-10-31T18:17:49;7.93;;;4.30;;
13048;SDS011;6591;51.446;5.404;2022-10-31T18:20:16;6.47;;;4.43;;
13048;SDS011;6591;51.446;5.404;2022-10-31T18:22:43;5.07;;;4.07;;
13048;SDS011;6591;51.446;5.404;2022-10-31T18:25:10;8.37;;;5.43;;